createdAt,value
2019-02-19T00:00:31.899Z,1009.24
2019-02-19T00:01:31.930Z,1009.24
2019-02-19T00:02:31.920Z,1009.21
2019-02-19T00:03:31.909Z,1009.23
2019-02-19T00:04:31.852Z,1009.21
2019-02-19T00:05:31.860Z,1009.27
2019-02-19T00:06:31.828Z,1009.26
2019-02-19T00:07:31.823Z,1009.25
2019-02-19T00:08:31.806Z,1009.26
2019-02-19T00:09:31.842Z,1009.24
2019-02-19T00:10:31.784Z,1009.30
2019-02-19T00:11:31.781Z,1009.32
2019-02-19T00:12:31.768Z,1009.30
2019-02-19T00:13:31.750Z,1009.27
2019-02-19T00:14:31.783Z,1009.30
2019-02-19T00:15:31.731Z,1009.29
2019-02-19T00:16:31.717Z,1009.26
2019-02-19T00:17:31.705Z,1009.28
2019-02-19T00:18:31.702Z,1009.28
2019-02-19T00:19:31.683Z,1009.30
2019-02-19T00:20:31.863Z,1009.29
2019-02-19T00:21:31.662Z,1009.35
2019-02-19T00:22:31.649Z,1009.32
2019-02-19T00:23:31.639Z,1009.29
2019-02-19T00:24:31.670Z,1009.32
2019-02-19T00:25:31.618Z,1009.33
2019-02-19T00:26:31.606Z,1009.30
2019-02-19T00:27:31.593Z,1009.30
2019-02-19T00:28:31.585Z,1009.25
2019-02-19T00:29:31.572Z,1009.25
2019-02-19T00:30:31.606Z,1009.21
2019-02-19T00:31:31.552Z,1009.28
2019-02-19T00:32:31.542Z,1009.30
2019-02-19T00:33:31.528Z,1009.26
2019-02-19T00:34:31.567Z,1009.31
2019-02-19T00:35:31.507Z,1009.33
2019-02-19T00:36:31.497Z,1009.31
2019-02-19T00:37:31.483Z,1009.25
2019-02-19T00:38:31.475Z,1009.26
2019-02-19T00:39:31.502Z,1009.27
2019-02-19T00:40:31.493Z,1009.25
2019-02-19T00:41:31.443Z,1009.25
2019-02-19T00:42:31.430Z,1009.28
2019-02-19T00:43:31.447Z,1009.26
2019-02-19T00:44:31.448Z,1009.25
2019-02-19T00:45:31.401Z,1009.26
2019-02-19T00:46:31.385Z,1009.23
2019-02-19T00:47:31.374Z,1009.22
2019-02-19T00:48:31.365Z,1009.25
2019-02-19T00:49:31.350Z,1009.24
2019-02-19T00:50:31.379Z,1009.27
2019-02-19T00:51:31.341Z,1009.27
2019-02-19T00:52:31.319Z,1009.26
2019-02-19T00:53:31.306Z,1009.24
2019-02-19T00:54:31.297Z,1009.24
2019-02-19T00:55:31.332Z,1009.27
2019-02-19T00:56:31.277Z,1009.27
2019-02-19T00:57:31.262Z,1009.24
2019-02-19T00:58:31.251Z,1009.26
2019-02-19T00:59:31.241Z,1009.24
2019-02-19T01:00:31.230Z,1009.20
2019-02-19T01:01:31.264Z,1009.20
2019-02-19T01:02:31.214Z,1009.19
2019-02-19T01:03:31.196Z,1009.16
2019-02-19T01:04:31.193Z,1009.16
2019-02-19T01:05:31.173Z,1009.11
2019-02-19T01:06:31.168Z,1009.11
2019-02-19T01:07:31.192Z,1009.10
2019-02-19T01:08:31.186Z,1009.06
2019-02-19T01:09:31.130Z,1009.08
2019-02-19T01:10:31.118Z,1009.10
2019-02-19T01:11:31.151Z,1009.06
2019-02-19T01:12:31.095Z,1009.10
2019-02-19T01:13:31.139Z,1009.07
2019-02-19T01:14:31.074Z,1009.08
2019-02-19T01:15:31.068Z,1009.07
2019-02-19T01:16:31.053Z,1009.10
2019-02-19T01:17:31.043Z,1009.07
2019-02-19T01:18:31.031Z,1009.05
2019-02-19T01:19:31.062Z,1009.10
2019-02-19T01:20:31.007Z,1009.14
2019-02-19T01:21:31.025Z,1009.13
2019-02-19T01:22:30.989Z,1009.13
2019-02-19T01:23:30.977Z,1009.14
2019-02-19T01:24:30.963Z,1009.15
2019-02-19T01:25:30.999Z,1009.22
2019-02-19T01:26:30.991Z,1009.17
2019-02-19T01:27:30.933Z,1009.18
2019-02-19T01:28:30.985Z,1009.20
2019-02-19T01:29:30.911Z,1009.23
2019-02-19T01:30:30.897Z,1009.18
2019-02-19T01:31:30.886Z,1009.20
2019-02-19T01:32:30.895Z,1009.21
2019-02-19T01:33:30.868Z,1009.21
2019-02-19T01:34:30.904Z,1009.31
2019-02-19T01:35:30.843Z,1009.28
2019-02-19T01:36:30.832Z,1009.29
2019-02-19T01:37:30.820Z,1009.30
2019-02-19T01:38:30.812Z,1009.30
2019-02-19T01:39:30.804Z,1009.32
2019-02-19T01:40:30.842Z,1009.24
2019-02-19T01:41:30.775Z,1009.29
2019-02-19T01:42:30.768Z,1009.32
2019-02-19T01:43:30.775Z,1009.39
2019-02-19T01:44:30.742Z,1009.41
2019-02-19T01:45:34.158Z,1009.39
2019-02-19T01:46:30.781Z,1009.29
2019-02-19T01:47:30.709Z,1009.26
2019-02-19T01:48:30.699Z,1009.25
2019-02-19T01:49:30.702Z,1009.32
2019-02-19T01:50:30.675Z,1009.33
2019-02-19T01:51:30.667Z,1009.30
2019-02-19T01:52:30.693Z,1009.31
2019-02-19T01:53:30.687Z,1009.28
2019-02-19T01:54:30.635Z,1009.27
2019-02-19T01:55:30.623Z,1009.26
2019-02-19T01:56:30.613Z,1009.27
2019-02-19T01:57:30.646Z,1009.29
2019-02-19T01:58:30.589Z,1009.30
2019-02-19T01:59:30.577Z,1009.28
2019-02-19T02:00:30.566Z,1009.29
2019-02-19T02:01:30.554Z,1009.28
2019-02-19T02:02:30.552Z,1009.30
2019-02-19T02:03:30.583Z,1009.30
2019-02-19T02:04:30.522Z,1009.25
2019-02-19T02:05:30.511Z,1009.25
2019-02-19T02:06:30.523Z,1009.27
2019-02-19T02:07:30.488Z,1009.24
2019-02-19T02:08:30.523Z,1009.24
2019-02-19T02:09:30.468Z,1009.24
2019-02-19T02:10:30.455Z,1009.22
2019-02-19T02:11:30.453Z,1009.23
2019-02-19T02:12:30.435Z,1009.24
2019-02-19T02:13:30.472Z,1009.16
2019-02-19T02:14:30.415Z,1009.25
2019-02-19T02:15:30.401Z,1009.22
2019-02-19T02:16:30.388Z,1009.23
2019-02-19T02:17:30.382Z,1009.25
2019-02-19T02:18:30.371Z,1009.27
2019-02-19T02:19:30.398Z,1009.28
2019-02-19T02:20:30.348Z,1009.26
2019-02-19T02:21:30.335Z,1009.25
2019-02-19T02:22:30.327Z,1009.21
2019-02-19T02:23:30.314Z,1009.25
2019-02-19T02:24:30.344Z,1009.27
2019-02-19T02:25:30.344Z,1009.29
2019-02-19T02:26:30.280Z,1009.31
2019-02-19T02:27:30.268Z,1009.30
2019-02-19T02:28:30.262Z,1009.30
2019-02-19T02:29:30.257Z,1009.30
2019-02-19T02:30:30.264Z,1009.37
2019-02-19T02:31:30.265Z,1009.38
2019-02-19T02:32:30.219Z,1009.41
2019-02-19T02:33:30.204Z,1009.45
2019-02-19T02:34:30.192Z,1009.46
2019-02-19T02:35:30.226Z,1009.45
2019-02-19T02:36:30.169Z,1009.48
2019-02-19T02:37:30.204Z,1009.46
2019-02-19T02:38:30.148Z,1009.43
2019-02-19T02:39:30.143Z,1009.44
2019-02-19T02:40:30.131Z,1009.43
2019-02-19T02:41:30.114Z,1009.45
2019-02-19T02:42:30.156Z,1009.40
2019-02-19T02:43:30.097Z,1009.47
2019-02-19T02:44:30.086Z,1009.45
2019-02-19T02:45:30.114Z,1009.44
2019-02-19T02:46:30.101Z,1009.41
2019-02-19T02:47:30.053Z,1009.40
2019-02-19T02:48:30.040Z,1009.45
2019-02-19T02:49:30.028Z,1009.39
2019-02-19T02:50:30.017Z,1009.37
2019-02-19T02:51:30.014Z,1009.36
2019-02-19T02:52:30.039Z,1009.39
2019-02-19T02:53:30.006Z,1009.43
2019-02-19T02:54:29.971Z,1009.43
2019-02-19T02:55:29.963Z,1009.45
2019-02-19T02:56:29.949Z,1009.38
2019-02-19T02:57:29.943Z,1009.41
2019-02-19T02:58:29.971Z,1009.39
2019-02-19T02:59:29.922Z,1009.44
2019-02-19T03:00:29.950Z,1009.42
2019-02-19T03:01:29.901Z,1009.39
2019-02-19T03:02:29.884Z,1009.44
2019-02-19T03:03:29.874Z,1009.45
2019-02-19T03:04:29.902Z,1009.45
2019-02-19T03:05:29.851Z,1009.41
2019-02-19T03:06:29.842Z,1009.42
2019-02-19T03:07:29.831Z,1009.40
2019-02-19T03:08:29.868Z,1009.40
2019-02-19T03:09:29.849Z,1009.40
2019-02-19T03:10:29.826Z,1009.42
2019-02-19T03:11:29.842Z,1009.40
2019-02-19T03:12:29.776Z,1009.44
2019-02-19T03:13:29.766Z,1009.41
2019-02-19T03:14:29.801Z,1009.46
2019-02-19T03:15:29.746Z,1009.50
2019-02-19T03:16:29.736Z,1009.49
2019-02-19T03:17:29.721Z,1009.54
2019-02-19T03:18:29.713Z,1009.45
2019-02-19T03:19:29.698Z,1009.49
2019-02-19T03:20:29.740Z,1009.48
2019-02-19T03:21:29.678Z,1009.45
2019-02-19T03:22:29.708Z,1009.49
2019-02-19T03:23:29.668Z,1009.41
2019-02-19T03:24:29.644Z,1009.44
2019-02-19T03:25:29.631Z,1009.42
2019-02-19T03:26:29.627Z,1009.41
2019-02-19T03:27:29.651Z,1009.48
2019-02-19T03:28:29.599Z,1009.45
2019-02-19T03:29:29.632Z,1009.44
2019-02-19T03:30:29.581Z,1009.46
2019-02-19T03:31:29.608Z,1009.41
2019-02-19T03:32:29.577Z,1009.44
2019-02-19T03:33:29.585Z,1009.41
2019-02-19T03:34:29.539Z,1009.42
2019-02-19T03:35:29.522Z,1009.40
2019-02-19T03:36:29.516Z,1009.44
2019-02-19T03:37:29.543Z,1009.37
2019-02-19T03:38:29.488Z,1009.37
2019-02-19T03:39:29.480Z,1009.43
2019-02-19T03:40:29.481Z,1009.42
2019-02-19T03:41:29.460Z,1009.46
2019-02-19T03:42:29.489Z,1009.42
2019-02-19T03:43:29.438Z,1009.49
2019-02-19T03:44:29.424Z,1009.47
2019-02-19T03:45:29.411Z,1009.45
2019-02-19T03:46:30.460Z,1009.48
2019-02-19T03:47:29.396Z,1009.47
2019-02-19T03:48:29.423Z,1009.54
2019-02-19T03:49:29.424Z,1009.54
2019-02-19T03:50:29.361Z,1009.54
2019-02-19T03:51:29.361Z,1009.51
2019-02-19T03:52:29.377Z,1009.50
2019-02-19T03:53:29.325Z,1009.56
2019-02-19T03:54:29.316Z,1009.58
2019-02-19T03:55:29.315Z,1009.60
2019-02-19T03:56:29.291Z,1009.52
2019-02-19T03:57:29.288Z,1009.55
2019-02-19T03:58:29.322Z,1009.59
2019-02-19T03:59:29.260Z,1009.63
2019-02-19T04:00:29.258Z,1009.65
2019-02-19T04:01:29.275Z,1009.70
2019-02-19T04:02:29.224Z,1009.67
2019-02-19T04:03:29.213Z,1009.72
2019-02-19T04:04:29.207Z,1009.72
2019-02-19T04:05:29.237Z,1009.71
2019-02-19T04:06:29.199Z,1009.75
2019-02-19T04:07:29.175Z,1009.75
2019-02-19T04:08:29.218Z,1009.70
2019-02-19T04:09:29.159Z,1009.74
2019-02-19T04:10:29.136Z,1009.73
2019-02-19T04:11:29.166Z,1009.74
2019-02-19T04:12:29.114Z,1009.75
2019-02-19T04:13:29.102Z,1009.76
2019-02-19T04:14:29.139Z,1009.78
2019-02-19T04:15:29.082Z,1009.75
2019-02-19T04:16:29.069Z,1009.77
2019-02-19T04:17:29.059Z,1009.81
2019-02-19T04:18:29.051Z,1009.78
2019-02-19T04:19:29.039Z,1009.76
2019-02-19T04:20:29.065Z,1009.80
2019-02-19T04:21:29.014Z,1009.81
2019-02-19T04:22:29.002Z,1009.81
2019-02-19T04:23:28.995Z,1009.83
2019-02-19T04:24:28.979Z,1009.84
2019-02-19T04:25:29.012Z,1009.84
2019-02-19T04:26:29.017Z,1009.85
2019-02-19T04:27:28.949Z,1009.86
2019-02-19T04:28:28.935Z,1009.88
2019-02-19T04:29:28.924Z,1009.92
2019-02-19T04:30:28.914Z,1009.93
2019-02-19T04:31:28.952Z,1009.94
2019-02-19T04:32:28.911Z,1009.94
2019-02-19T04:33:28.894Z,1009.90
2019-02-19T04:34:28.874Z,1009.89
2019-02-19T04:35:28.859Z,1009.91
2019-02-19T04:36:28.847Z,1009.90
2019-02-19T04:37:30.017Z,1009.90
2019-02-19T04:38:28.834Z,1009.94
2019-02-19T04:39:28.855Z,1009.93
2019-02-19T04:40:28.808Z,1009.89
2019-02-19T04:41:28.790Z,1009.89
2019-02-19T04:42:28.788Z,1009.84
2019-02-19T04:43:28.771Z,1009.86
2019-02-19T04:44:28.803Z,1009.91
2019-02-19T04:45:28.750Z,1009.87
2019-02-19T04:46:31.769Z,1009.85
2019-02-19T04:47:28.723Z,1009.91
2019-02-19T04:48:28.714Z,1009.89
2019-02-19T04:49:28.702Z,1009.95
2019-02-19T04:50:28.736Z,1009.90
2019-02-19T04:51:28.685Z,1009.88
2019-02-19T04:52:28.669Z,1009.93
2019-02-19T04:53:28.660Z,1009.93
2019-02-19T04:54:28.689Z,1009.90
2019-02-19T04:55:28.658Z,1009.93
2019-02-19T04:56:28.624Z,1009.97
2019-02-19T04:57:28.615Z,1010.01
2019-02-19T04:58:28.601Z,1010.04
2019-02-19T04:59:28.590Z,1010.08
2019-02-19T05:00:28.620Z,1010.06
2019-02-19T05:01:28.606Z,1010.10
2019-02-19T05:02:28.557Z,1010.07
2019-02-19T05:03:28.545Z,1010.09
2019-02-19T05:04:28.544Z,1010.12
2019-02-19T05:05:28.540Z,1010.08
2019-02-19T05:06:28.555Z,1010.07
2019-02-19T05:07:28.506Z,1010.14
2019-02-19T05:08:28.491Z,1010.10
2019-02-19T05:09:28.483Z,1010.14
2019-02-19T05:10:28.468Z,1010.09
2019-02-19T05:11:28.455Z,1010.08
2019-02-19T05:12:28.486Z,1010.08
2019-02-19T05:13:28.435Z,1010.11
2019-02-19T05:14:28.425Z,1010.11
2019-02-19T05:15:28.411Z,1010.11
2019-02-19T05:16:28.402Z,1010.12
2019-02-19T05:17:28.390Z,1010.15
2019-02-19T05:18:28.418Z,1010.16
2019-02-19T05:19:28.369Z,1010.16
2019-02-19T05:20:28.359Z,1010.14
2019-02-19T05:21:28.346Z,1010.16
2019-02-19T05:22:28.379Z,1010.18
2019-02-19T05:23:28.360Z,1010.18
2019-02-19T05:24:28.312Z,1010.20
2019-02-19T05:25:28.307Z,1010.21
2019-02-19T05:26:28.302Z,1010.20
2019-02-19T05:27:28.277Z,1010.24
2019-02-19T05:28:28.308Z,1010.19
2019-02-19T05:29:28.300Z,1010.22
2019-02-19T05:30:28.249Z,1010.25
2019-02-19T05:31:28.235Z,1010.27
2019-02-19T05:32:28.228Z,1010.27
2019-02-19T05:33:28.213Z,1010.29
2019-02-19T05:34:28.199Z,1010.31
2019-02-19T05:35:28.229Z,1010.29
2019-02-19T05:36:28.179Z,1010.32
2019-02-19T05:37:28.165Z,1010.31
2019-02-19T05:38:28.217Z,1010.27
2019-02-19T05:39:28.143Z,1010.27
2019-02-19T05:40:28.140Z,1010.30
2019-02-19T05:41:28.125Z,1010.29
2019-02-19T05:42:28.152Z,1010.25
2019-02-19T05:43:28.099Z,1010.30
2019-02-19T05:44:28.089Z,1010.29
2019-02-19T05:45:28.076Z,1010.28
2019-02-19T05:46:28.069Z,1010.27
2019-02-19T05:47:28.095Z,1010.26
2019-02-19T05:48:28.052Z,1010.31
2019-02-19T05:49:28.031Z,1010.37
2019-02-19T05:50:28.025Z,1010.30
2019-02-19T05:51:28.016Z,1010.30
2019-02-19T05:52:27.999Z,1010.32
2019-02-19T05:53:28.026Z,1010.31
2019-02-19T05:54:28.024Z,1010.28
2019-02-19T05:55:27.965Z,1010.28
2019-02-19T05:56:27.958Z,1010.26
2019-02-19T05:57:27.943Z,1010.32
2019-02-19T05:58:27.932Z,1010.32
2019-02-19T05:59:27.923Z,1010.27
2019-02-19T06:00:27.954Z,1010.25
2019-02-19T06:01:27.900Z,1010.26
2019-02-19T06:02:27.931Z,1010.22
2019-02-19T06:03:27.876Z,1010.22
2019-02-19T06:04:27.867Z,1010.21
2019-02-19T06:05:27.881Z,1010.18
2019-02-19T06:06:27.851Z,1010.19
2019-02-19T06:07:27.840Z,1010.20
2019-02-19T06:08:27.865Z,1010.17
2019-02-19T06:09:27.816Z,1010.19
2019-02-19T06:10:27.805Z,1010.18
2019-02-19T06:11:27.790Z,1010.18
2019-02-19T06:12:27.785Z,1010.20
2019-02-19T06:13:27.817Z,1010.20
2019-02-19T06:14:27.777Z,1010.21
2019-02-19T06:15:27.744Z,1010.26
2019-02-19T06:16:27.774Z,1010.30
2019-02-19T06:17:27.767Z,1010.31
2019-02-19T06:18:27.716Z,1010.35
2019-02-19T06:19:27.702Z,1010.35
2019-02-19T06:20:27.754Z,1010.39
2019-02-19T06:21:27.688Z,1010.41
2019-02-19T06:22:27.669Z,1010.47
2019-02-19T06:23:27.707Z,1010.47
2019-02-19T06:24:27.650Z,1010.52
2019-02-19T06:25:27.637Z,1010.59
2019-02-19T06:26:27.636Z,1010.61
2019-02-19T06:27:27.615Z,1010.61
2019-02-19T06:28:27.603Z,1010.68
2019-02-19T06:29:27.637Z,1010.72
2019-02-19T06:30:27.580Z,1010.76
2019-02-19T06:31:27.572Z,1010.75
2019-02-19T06:32:27.561Z,1010.75
2019-02-19T06:33:27.555Z,1010.74
2019-02-19T06:34:27.556Z,1010.74
2019-02-19T06:35:27.574Z,1010.80
2019-02-19T06:36:27.511Z,1010.79
2019-02-19T06:37:27.504Z,1010.79
2019-02-19T06:38:27.500Z,1010.79
2019-02-19T06:39:27.539Z,1010.82
2019-02-19T06:40:27.522Z,1010.82
2019-02-19T06:41:27.501Z,1010.85
2019-02-19T06:42:27.446Z,1010.89
2019-02-19T06:43:27.466Z,1010.89
2019-02-19T06:44:27.452Z,1010.89
2019-02-19T06:45:27.426Z,1010.88
2019-02-19T06:46:27.409Z,1010.92
2019-02-19T06:47:27.442Z,1010.93
2019-02-19T06:48:27.382Z,1010.97
2019-02-19T06:49:27.367Z,1011.01
2019-02-19T06:50:27.411Z,1010.98
2019-02-19T06:51:27.351Z,1011.00
2019-02-19T06:52:27.392Z,1011.04
2019-02-19T06:53:27.373Z,1011.08
2019-02-19T06:54:27.505Z,1011.08
2019-02-19T06:55:27.328Z,1011.07
2019-02-19T06:56:27.311Z,1011.07
2019-02-19T06:57:27.336Z,1011.08
2019-02-19T06:58:27.672Z,1011.07
2019-02-19T06:59:27.312Z,1011.11
2019-02-19T07:00:27.274Z,1011.08
2019-02-19T07:01:27.264Z,1011.12
2019-02-19T07:02:27.257Z,1011.15
2019-02-19T07:03:27.286Z,1011.14
2019-02-19T07:04:27.257Z,1011.09
2019-02-19T07:05:27.203Z,1011.13
2019-02-19T07:06:27.232Z,1011.14
2019-02-19T07:07:27.189Z,1011.10
2019-02-19T07:08:27.167Z,1011.10
2019-02-19T07:09:27.161Z,1011.10
2019-02-19T07:10:27.166Z,1011.10
2019-02-19T07:11:27.168Z,1011.16
2019-02-19T07:12:27.110Z,1011.11
2019-02-19T07:13:27.130Z,1011.11
2019-02-19T07:14:27.191Z,1011.10
2019-02-19T07:15:27.119Z,1011.15
2019-02-19T07:16:27.068Z,1011.17
2019-02-19T07:17:27.063Z,1011.24
2019-02-19T07:18:27.083Z,1011.30
2019-02-19T07:19:27.048Z,1011.34
2019-02-19T07:20:27.041Z,1011.36
2019-02-19T07:21:27.061Z,1011.37
2019-02-19T07:22:27.005Z,1011.40
2019-02-19T07:23:27.006Z,1011.38
2019-02-19T07:24:26.975Z,1011.36
2019-02-19T07:25:26.965Z,1011.33
2019-02-19T07:26:27.027Z,1011.29
2019-02-19T07:27:26.941Z,1011.27
2019-02-19T07:28:26.942Z,1011.32
2019-02-19T07:29:26.924Z,1011.30
2019-02-19T07:30:26.911Z,1011.33
2019-02-19T07:31:26.969Z,1011.42
2019-02-19T07:32:26.932Z,1011.39
2019-02-19T07:33:26.875Z,1011.32
2019-02-19T07:34:26.884Z,1011.36
2019-02-19T07:35:26.859Z,1011.41
2019-02-19T07:36:26.840Z,1011.45
2019-02-19T07:37:26.878Z,1011.47
2019-02-19T07:38:27.090Z,1011.46
2019-02-19T07:39:26.820Z,1011.54
2019-02-19T07:40:26.910Z,1011.52
2019-02-19T07:41:26.988Z,1011.52
2019-02-19T07:42:26.779Z,1011.52
2019-02-19T07:43:26.846Z,1011.51
2019-02-19T07:44:26.761Z,1011.58
2019-02-19T07:45:27.372Z,1011.64
2019-02-19T07:46:26.748Z,1011.68
2019-02-19T07:47:26.975Z,1011.67
2019-02-19T07:48:26.722Z,1011.65
2019-02-19T07:49:26.707Z,1011.72
2019-02-19T07:50:26.922Z,1011.66
2019-02-19T07:51:26.757Z,1011.65
2019-02-19T07:52:26.718Z,1011.64
2019-02-19T07:53:26.898Z,1011.67
2019-02-19T07:54:26.642Z,1011.70
2019-02-19T07:55:26.781Z,1011.70
2019-02-19T07:56:26.618Z,1011.72
2019-02-19T07:57:26.636Z,1011.70
2019-02-19T07:58:26.788Z,1011.72
2019-02-19T07:59:26.603Z,1011.73
2019-02-19T08:00:26.575Z,1011.72
2019-02-19T08:01:26.593Z,1011.75
2019-02-19T08:02:26.592Z,1011.79
2019-02-19T08:03:26.652Z,1011.81
2019-02-19T08:04:26.630Z,1011.81
2019-02-19T08:05:26.771Z,1011.79
2019-02-19T08:06:26.711Z,1011.84
2019-02-19T08:07:26.513Z,1011.81
2019-02-19T08:08:26.504Z,1011.85
2019-02-19T08:09:26.691Z,1011.81
2019-02-19T08:10:26.504Z,1011.79
2019-02-19T08:11:26.496Z,1011.78
2019-02-19T08:12:26.438Z,1011.79
2019-02-19T08:13:26.441Z,1011.87
2019-02-19T08:14:26.419Z,1011.89
2019-02-19T08:15:26.477Z,1011.90
2019-02-19T08:16:26.398Z,1011.91
2019-02-19T08:17:33.080Z,1011.92
2019-02-19T08:18:27.382Z,1011.97
2019-02-19T08:19:26.361Z,1011.95
2019-02-19T08:20:26.349Z,1011.96
2019-02-19T08:21:26.414Z,1011.98
2019-02-19T08:22:26.340Z,1012.04
2019-02-19T08:23:26.356Z,1012.05
2019-02-19T08:24:26.325Z,1012.01
2019-02-19T08:25:26.293Z,1012.04
2019-02-19T08:26:26.278Z,1012.07
2019-02-19T08:27:26.314Z,1012.01
2019-02-19T08:28:26.259Z,1012.02
2019-02-19T08:29:26.289Z,1011.98
2019-02-19T08:30:26.268Z,1012.02
2019-02-19T08:31:26.243Z,1012.01
2019-02-19T08:32:26.278Z,1012.09
2019-02-19T08:33:26.241Z,1012.01
2019-02-19T08:34:26.258Z,1012.06
2019-02-19T08:35:26.200Z,1012.04
2019-02-19T08:36:26.195Z,1012.03
2019-02-19T08:37:26.170Z,1012.09
2019-02-19T08:38:26.175Z,1012.08
2019-02-19T08:39:26.268Z,1012.04
2019-02-19T08:40:26.189Z,1012.00
2019-02-19T08:41:26.131Z,1012.09
2019-02-19T08:42:26.106Z,1012.11
2019-02-19T08:43:26.292Z,1012.10
2019-02-19T08:44:27.994Z,1012.16
2019-02-19T08:45:26.345Z,1012.12
2019-02-19T08:46:28.605Z,1012.11
2019-02-19T08:47:26.669Z,1012.14
2019-02-19T08:48:26.471Z,1012.18
2019-02-19T08:49:26.166Z,1012.17
2019-02-19T08:50:26.085Z,1012.19
2019-02-19T08:51:26.265Z,1012.19
2019-02-19T08:52:26.113Z,1012.16
2019-02-19T08:53:26.056Z,1012.19
2019-02-19T08:54:26.020Z,1012.21
2019-02-19T08:55:25.994Z,1012.23
2019-02-19T08:56:25.956Z,1012.23
2019-02-19T08:57:26.013Z,1012.28
2019-02-19T08:58:25.932Z,1012.28
2019-02-19T08:59:26.029Z,1012.31
2019-02-19T09:00:25.935Z,1012.32
2019-02-19T09:01:25.886Z,1012.38
2019-02-19T09:02:25.876Z,1012.39
2019-02-19T09:03:25.911Z,1012.38
2019-02-19T09:04:25.895Z,1012.40
2019-02-19T09:05:25.852Z,1012.32
2019-02-19T09:06:27.583Z,1012.41
2019-02-19T09:07:25.929Z,1012.42
2019-02-19T09:08:27.800Z,1012.44
2019-02-19T09:09:25.825Z,1012.42
2019-02-19T09:10:25.862Z,1012.39
2019-02-19T09:11:25.945Z,1012.40
2019-02-19T09:12:25.853Z,1012.44
2019-02-19T09:13:25.810Z,1012.46
2019-02-19T09:14:25.762Z,1012.46
2019-02-19T09:15:25.733Z,1012.41
2019-02-19T09:16:25.721Z,1012.47
2019-02-19T09:17:25.715Z,1012.45
2019-02-19T09:18:26.446Z,1012.44
2019-02-19T09:19:25.693Z,1012.51
2019-02-19T09:20:25.728Z,1012.47
2019-02-19T09:21:25.972Z,1012.48
2019-02-19T09:22:25.673Z,1012.54
2019-02-19T09:23:26.226Z,1012.50
2019-02-19T09:24:26.345Z,1012.52
2019-02-19T09:25:25.753Z,1012.50
2019-02-19T09:26:25.798Z,1012.50
2019-02-19T09:27:25.664Z,1012.49
2019-02-19T09:28:26.574Z,1012.53
2019-02-19T09:29:25.639Z,1012.51
2019-02-19T09:30:28.333Z,1012.51
2019-02-19T09:31:25.600Z,1012.56
2019-02-19T09:32:25.618Z,1012.50
2019-02-19T09:33:25.562Z,1012.59
2019-02-19T09:34:25.559Z,1012.58
2019-02-19T09:35:25.744Z,1012.62
2019-02-19T09:36:25.494Z,1012.60
2019-02-19T09:37:25.561Z,1012.63
2019-02-19T09:38:25.498Z,1012.62
2019-02-19T09:39:25.674Z,1012.60
2019-02-19T09:40:25.451Z,1012.57
2019-02-19T09:41:25.606Z,1012.53
2019-02-19T09:42:25.725Z,1012.57
2019-02-19T09:43:25.491Z,1012.52
2019-02-19T09:44:25.403Z,1012.55
2019-02-19T09:45:25.463Z,1012.56
2019-02-19T09:46:25.444Z,1012.48
2019-02-19T09:47:25.494Z,1012.50
2019-02-19T09:48:25.391Z,1012.57
2019-02-19T09:49:25.354Z,1012.60
2019-02-19T09:50:25.357Z,1012.56
2019-02-19T09:51:25.526Z,1012.58
2019-02-19T09:52:25.336Z,1012.63
2019-02-19T09:53:25.304Z,1012.59
2019-02-19T09:54:25.357Z,1012.56
2019-02-19T09:55:26.329Z,1012.56
2019-02-19T09:56:25.257Z,1012.52
2019-02-19T09:57:25.482Z,1012.51
2019-02-19T09:58:25.276Z,1012.52
2019-02-19T09:59:25.491Z,1012.53
2019-02-19T10:00:25.920Z,1012.53
2019-02-19T10:01:25.456Z,1012.55
2019-02-19T10:02:25.503Z,1012.58
2019-02-19T10:03:25.193Z,1012.55
2019-02-19T10:04:25.400Z,1012.59
2019-02-19T10:05:25.162Z,1012.58
2019-02-19T10:06:25.429Z,1012.59
2019-02-19T10:07:25.160Z,1012.52
2019-02-19T10:08:25.136Z,1012.56
2019-02-19T10:09:25.109Z,1012.55
2019-02-19T10:10:25.570Z,1012.58
2019-02-19T10:11:25.220Z,1012.57
2019-02-19T10:12:25.287Z,1012.59
2019-02-19T10:13:26.280Z,1012.63
2019-02-19T10:14:25.154Z,1012.61
2019-02-19T10:15:25.065Z,1012.59
2019-02-19T10:16:25.104Z,1012.58
2019-02-19T10:17:25.330Z,1012.54
2019-02-19T10:18:25.871Z,1012.56
2019-02-19T10:19:26.096Z,1012.58
2019-02-19T10:20:25.006Z,1012.62
2019-02-19T10:21:24.973Z,1012.56
2019-02-19T10:22:25.362Z,1012.60
2019-02-19T10:23:25.108Z,1012.58
2019-02-19T10:24:25.316Z,1012.65
2019-02-19T10:25:24.986Z,1012.72
2019-02-19T10:26:24.959Z,1012.58
2019-02-19T10:27:24.968Z,1012.60
2019-02-19T10:28:24.912Z,1012.69
2019-02-19T10:29:25.066Z,1012.67
2019-02-19T10:30:24.976Z,1012.76
2019-02-19T10:31:25.299Z,1012.63
2019-02-19T10:32:24.953Z,1012.76
2019-02-19T10:33:24.995Z,1012.67
2019-02-19T10:34:24.857Z,1012.63
2019-02-19T10:35:26.318Z,1012.65
2019-02-19T10:36:25.135Z,1012.66
2019-02-19T10:37:24.789Z,1012.66
2019-02-19T10:38:24.789Z,1012.59
2019-02-19T10:39:24.824Z,1012.70
2019-02-19T10:40:24.812Z,1012.66
2019-02-19T10:41:25.581Z,1012.70
2019-02-19T10:42:24.816Z,1012.63
2019-02-19T10:43:24.786Z,1012.66
2019-02-19T10:44:24.823Z,1012.64
2019-02-19T10:45:24.697Z,1012.74
2019-02-19T10:46:24.712Z,1012.71
2019-02-19T10:47:24.734Z,1012.72
2019-02-19T10:48:24.707Z,1012.63
2019-02-19T10:49:24.693Z,1012.64
2019-02-19T10:50:24.659Z,1012.61
2019-02-19T10:51:24.688Z,1012.80
2019-02-19T10:52:24.641Z,1012.75
2019-02-19T10:53:24.607Z,1012.61
2019-02-19T10:54:24.598Z,1012.66
2019-02-19T10:55:24.675Z,1012.60
2019-02-19T10:56:24.603Z,1012.67
2019-02-19T10:57:24.628Z,1012.62
2019-02-19T10:58:24.553Z,1012.61
2019-02-19T10:59:24.624Z,1012.66
2019-02-19T11:00:24.577Z,1012.63
2019-02-19T11:01:27.262Z,1012.77
2019-02-19T11:02:24.608Z,1012.64
2019-02-19T11:03:24.599Z,1012.58
2019-02-19T11:04:24.486Z,1012.56
2019-02-19T11:05:24.470Z,1012.54
2019-02-19T11:06:24.504Z,1012.53
2019-02-19T11:07:24.469Z,1012.61
2019-02-19T11:08:24.527Z,1012.59
2019-02-19T11:09:24.470Z,1012.52
2019-02-19T11:10:24.417Z,1012.54
2019-02-19T11:11:24.440Z,1012.49
2019-02-19T11:12:24.531Z,1012.47
2019-02-19T11:13:24.502Z,1012.41
2019-02-19T11:14:25.381Z,1012.47
2019-02-19T11:15:24.397Z,1012.48
2019-02-19T11:16:24.355Z,1012.46
2019-02-19T11:17:24.333Z,1012.48
2019-02-19T11:18:28.551Z,1012.46
2019-02-19T11:19:24.444Z,1012.46
2019-02-19T11:20:25.259Z,1012.49
2019-02-19T11:21:24.629Z,1012.46
2019-02-19T11:22:26.012Z,1012.44
2019-02-19T11:23:24.452Z,1012.46
2019-02-19T11:24:24.259Z,1012.45
2019-02-19T11:25:24.296Z,1012.38
2019-02-19T11:26:24.259Z,1012.38
2019-02-19T11:27:24.787Z,1012.37
2019-02-19T11:28:24.233Z,1012.39
2019-02-19T11:29:24.203Z,1012.43
2019-02-19T11:30:24.301Z,1012.38
2019-02-19T11:31:24.338Z,1012.46
2019-02-19T11:32:24.201Z,1012.29
2019-02-19T11:33:24.185Z,1012.33
2019-02-19T11:34:24.292Z,1012.36
2019-02-19T11:35:24.138Z,1012.41
2019-02-19T11:36:24.122Z,1012.39
2019-02-19T11:37:24.156Z,1012.31
2019-02-19T11:38:24.099Z,1012.34
2019-02-19T11:39:24.114Z,1012.31
2019-02-19T11:40:24.077Z,1012.32
2019-02-19T11:41:24.091Z,1012.37
2019-02-19T11:42:24.121Z,1012.21
2019-02-19T11:43:24.141Z,1012.31
2019-02-19T11:44:24.038Z,1012.28
2019-02-19T11:45:24.032Z,1012.18
2019-02-19T11:46:24.076Z,1012.22
2019-02-19T11:47:26.619Z,1012.41
2019-02-19T11:48:24.821Z,1012.33
2019-02-19T11:49:24.083Z,1012.33
2019-02-19T11:50:23.963Z,1012.31
2019-02-19T11:51:23.948Z,1012.28
2019-02-19T11:52:23.977Z,1012.18
2019-02-19T11:53:24.012Z,1012.18
2019-02-19T11:54:23.935Z,1012.16
2019-02-19T11:55:24.277Z,1012.09
2019-02-19T11:56:23.934Z,1012.14
2019-02-19T11:57:24.004Z,1012.15
2019-02-19T11:58:23.865Z,1012.12
2019-02-19T11:59:23.859Z,1012.12
2019-02-19T12:00:23.858Z,1012.17
2019-02-19T12:01:23.834Z,1012.13
2019-02-19T12:02:32.432Z,1012.22
2019-02-19T12:03:24.816Z,1012.13
2019-02-19T12:04:23.849Z,1012.13
2019-02-19T12:05:23.796Z,1012.11